Time;durP1;ratioP1;P1;durP2;ratioP2;P2;SDS_P1;SDS_P2;PMS_P1;PMS_P2;Temp;Humidity;BMP_temperature;BMP_pressure;BME280_temperature;BME280_humidity;BME280_pressure;Samples;Min_cycle;Max_cycle;Signal;HPM_P1;HPM_P2
2022/08/29 00:02:16;;;;;;;1999.90;999.90;;;;;;;16.13;100.00;92161.16;4920043;29;20246;-62
2022/08/29 00:04:41;;;;;;;1999.90;999.90;;;;;;;16.11;100.00;92160.94;4919532;29;20193;-62
2022/08/29 00:07:06;;;;;;;1999.90;999.90;;;;;;;16.08;100.00;92157.22;4919494;29;20213;-62
2022/08/29 00:09:32;;;;;;;1999.90;999.90;;;;;;;16.03;100.00;92158.03;4919462;29;20240;-63
2022/08/29 00:11:57;;;;;;;1999.90;999.90;;;;;;;16.01;100.00;92165.31;4920007;29;20198;-62
2022/08/29 00:14:22;;;;;;;1999.90;999.90;;;;;;;15.99;100.00;92170.59;4936711;29;20190;-62
2022/08/29 00:16:48;;;;;;;1999.90;999.90;;;;;;;15.97;100.00;92179.38;4922759;29;20205;-62
2022/08/29 00:19:13;;;;;;;1999.90;999.90;;;;;;;15.95;100.00;92176.38;4938634;29;20193;-62
2022/08/29 00:21:39;;;;;;;1999.90;999.90;;;;;;;15.92;100.00;92174.66;4938460;29;20244;-63
2022/08/29 00:24:04;;;;;;;1999.90;999.90;;;;;;;15.87;100.00;92189.22;4922578;29;20241;-62
2022/08/29 00:26:30;;;;;;;1999.90;999.90;;;;;;;15.82;100.00;92214.03;4922478;29;20241;-62
2022/08/29 00:28:55;;;;;;;1999.90;999.90;;;;;;;15.80;100.00;92209.03;4922825;29;20192;-62
2022/08/29 00:31:20;;;;;;;1999.90;999.90;;;;;;;15.78;100.00;92211.56;4922474;29;20198;-63
2022/08/29 00:33:46;;;;;;;1999.90;999.90;;;;;;;15.77;100.00;92210.06;4938894;29;20206;-63
2022/08/29 00:36:12;;;;;;;1999.90;999.90;;;;;;;15.78;100.00;92227.34;4922485;29;20212;-62
2022/08/29 00:38:38;;;;;;;1999.90;999.90;;;;;;;15.78;100.00;92232.84;4922821;29;20196;-62
2022/08/29 00:41:04;;;;;;;1999.90;999.90;;;;;;;15.76;100.00;92230.59;4922267;29;20217;-63
2022/08/29 00:43:36;;;;;;;1999.90;999.90;;;;;;;15.73;100.00;92231.63;4923057;29;20194;-62
2022/08/29 00:46:21;;;;;;;1999.90;999.90;;;;;;;15.71;100.00;92223.16;4938418;29;20352;-62
2022/08/29 00:48:54;;;;;;;1999.90;999.90;;;;;;;15.68;100.00;92213.16;4922358;29;20225;-63
2022/08/29 00:51:20;;;;;;;1999.90;999.90;;;;;;;15.65;100.00;92213.44;4938215;29;20205;-62
2022/08/29 00:53:51;;;;;;;1999.90;999.90;;;;;;;15.61;100.00;92213.72;4922023;29;20284;-63
2022/08/29 00:56:17;;;;;;;1999.90;999.90;;;;;;;15.62;100.00;92214.44;4922955;29;20189;-62
2022/08/29 00:59:21;;;;;;;1999.90;999.90;;;;;;;15.62;100.00;92206.94;4922441;29;20205;-62
2022/08/29 01:01:47;;;;;;;1999.90;999.90;;;;;;;15.63;100.00;92205.69;4936311;29;20202;-62
2022/08/29 01:04:13;;;;;;;1999.90;999.90;;;;;;;15.59;100.00;92205.22;4938869;29;20201;-62
2022/08/29 01:06:40;;;;;;;1999.90;999.90;;;;;;;15.54;100.00;92214.28;4938144;29;20209;-63
2022/08/29 01:09:06;;;;;;;1999.90;999.90;;;;;;;15.51;100.00;92218.03;4921895;29;20205;-62
2022/08/29 01:14:18;;;;;;;1999.90;999.90;;;;;;;15.49;100.00;92217.81;4939124;29;20178;-62
2022/08/29 01:16:45;;;;;;;1999.90;999.90;;;;;;;15.44;100.00;92226.13;4922244;29;20237;-63
2022/08/29 01:19:27;;;;;;;1999.90;999.90;;;;;;;15.44;100.00;92226.84;4922270;29;20194;-62
2022/08/29 01:22:04;;;;;;;1999.90;999.90;;;;;;;15.42;100.00;92237.63;4937819;29;20200;-62
2022/08/29 01:24:44;;;;;;;1999.90;999.90;;;;;;;15.41;100.00;92241.63;4921459;29;20192;-62
2022/08/29 01:27:13;;;;;;;1999.90;999.90;;;;;;;15.39;100.00;92232.38;4937575;29;20214;-62
2022/08/29 01:29:38;;;;;;;1999.90;999.90;;;;;;;15.37;100.00;92235.66;4921318;29;20233;-62
2022/08/29 01:32:04;;;;;;;1999.90;999.90;;;;;;;15.36;100.00;92239.66;4921890;29;20190;-63
2022/08/29 01:34:30;;;;;;;1999.90;999.90;;;;;;;15.36;100.00;92233.41;4921984;29;20348;-62
2022/08/29 01:36:58;;;;;;;1999.90;999.90;;;;;;;15.32;100.00;92239.16;4921694;29;20263;-63
2022/08/29 01:39:28;;;;;;;1999.90;999.90;;;;;;;15.30;100.00;92232.69;4921861;29;20197;-62
2022/08/29 01:41:55;;;;;;;1999.90;999.90;;;;;;;15.28;100.00;92246.94;4937235;29;20194;-63
2022/08/29 01:44:24;;;;;;;1999.90;999.90;;;;;;;15.29;100.00;92247.66;4921856;29;20186;-62
2022/08/29 01:46:53;;;;;;;1999.90;999.90;;;;;;;15.28;100.00;92235.94;4921864;29;20206;-63
2022/08/29 01:49:19;;;;;;;1999.90;999.90;;;;;;;15.30;100.00;92238.91;4921289;29;20232;-62
2022/08/29 01:51:45;;;;;;;1999.90;999.90;;;;;;;15.28;100.00;92235.94;4921117;29;20284;-62
2022/08/29 01:54:11;;;;;;;1999.90;999.90;;;;;;;15.27;100.00;92228.94;4921324;29;20221;-62
2022/08/29 01:56:41;;;;;;;1999.90;999.90;;;;;;;15.26;100.00;92238.44;4921283;29;20189;-62
2022/08/29 01:59:10;;;;;;;1999.90;999.90;;;;;;;15.24;100.00;92246.47;4921174;29;20181;-62
2022/08/29 02:01:52;;;;;;;1999.90;999.90;;;;;;;15.23;100.00;92244.22;4920893;29;20264;-63
2022/08/29 02:04:19;;;;;;;1999.90;999.90;;;;;;;15.17;100.00;92241.50;4921331;29;20269;-63
2022/08/29 02:06:44;;;;;;;1999.90;999.90;;;;;;;15.18;100.00;92236.75;4936746;29;20221;-62
2022/08/29 02:09:10;;;;;;;1999.90;999.90;;;;;;;15.14;100.00;92239.78;4921183;29;20216;-63
2022/08/29 02:11:36;;;;;;;1999.90;999.90;;;;;;;15.12;100.00;92234.03;4920939;29;20201;-62
2022/08/29 02:14:03;;;;;;;1999.90;999.90;;;;;;;15.12;100.00;92230.56;4936750;29;20197;-62
2022/08/29 02:16:29;;;;;;;1999.90;999.90;;;;;;;15.12;100.00;92233.31;4921269;29;20197;-62
2022/08/29 02:18:55;;;;;;;1999.90;999.90;;;;;;;15.10;100.00;92239.31;4920737;29;20253;-62
2022/08/29 02:21:23;;;;;;;1999.90;999.90;;;;;;;15.11;100.00;92238.03;4920799;29;20209;-62
2022/08/29 02:23:49;;;;;;;1999.90;999.90;;;;;;;15.12;100.00;92236.06;4920808;29;20190;-63
2022/08/29 02:26:20;;;;;;;1999.90;999.90;;;;;;;15.09;100.00;92239.81;4920827;29;20202;-62
2022/08/29 02:28:48;;;;;;;1999.90;999.90;;;;;;;15.07;100.00;92243.06;4920633;29;20186;-63
2022/08/29 02:31:15;;;;;;;1999.90;999.90;;;;;;;15.06;100.00;92238.06;4936448;29;20264;-63
2022/08/29 02:33:40;;;;;;;1999.90;999.90;;;;;;;15.07;100.00;92243.06;4920754;29;20225;-63
2022/08/29 02:36:07;;;;;;;1999.90;999.90;;;;;;;15.05;100.00;92239.34;4920276;29;20202;-62
2022/08/29 02:38:33;;;;;;;1999.90;999.90;;;;;;;15.05;100.00;92239.34;4920701;29;20349;-62
2022/08/29 02:40:58;;;;;;;1999.90;999.90;;;;;;;15.04;100.00;92229.59;4920487;29;20198;-62
2022/08/29 02:43:24;;;;;;;1999.90;999.90;;;;;;;15.08;100.00;92228.06;4921217;29;20252;-62
2022/08/29 02:45:51;;;;;;;1999.90;999.90;;;;;;;15.10;100.00;92220.06;4920339;29;20225;-63
2022/08/29 02:48:17;;;;;;;1999.90;999.90;;;;;;;15.13;100.00;92221.03;4936530;29;20294;-63
2022/08/29 02:50:47;;;;;;;1999.90;999.90;;;;;;;15.11;100.00;92215.28;4936236;29;20225;-63
2022/08/29 02:53:14;;;;;;;1999.90;999.90;;;;;;;15.06;100.00;92219.59;4936493;29;20268;-62
2022/08/29 02:55:40;;;;;;;1999.90;999.90;;;;;;;15.03;100.00;92236.34;4920657;29;20204;-62
2022/08/29 02:58:06;;;;;;;1999.90;999.90;;;;;;;14.97;100.00;92239.13;4920621;29;20201;-62
2022/08/29 03:00:32;;;;;;;1999.90;999.90;;;;;;;14.91;100.00;92240.41;4920595;29;20201;-62
2022/08/29 03:02:58;;;;;;;1999.90;999.90;;;;;;;14.89;100.00;92235.41;4920800;29;20190;-62
2022/08/29 03:05:26;;;;;;;1999.90;999.90;;;;;;;14.87;100.00;92235.19;4935851;29;20194;-62
2022/08/29 03:07:56;;;;;;;1999.90;999.90;;;;;;;14.88;100.00;92236.69;4935771;29;20204;-62
2022/08/29 03:10:22;;;;;;;1999.90;999.90;;;;;;;14.86;100.00;92233.69;4936005;29;20198;-62
2022/08/29 03:12:48;;;;;;;1999.90;999.90;;;;;;;14.84;100.00;92240.94;4920386;29;20265;-63
2022/08/29 03:15:15;;;;;;;1999.90;999.90;;;;;;;14.81;100.00;92253.69;4920129;29;20197;-63
2022/08/29 03:17:41;;;;;;;1999.90;999.90;;;;;;;14.81;100.00;92248.19;4920089;29;20208;-63
2022/08/29 03:20:08;;;;;;;1999.90;999.90;;;;;;;14.79;100.00;92253.44;4920190;29;20194;-62
2022/08/29 03:22:34;;;;;;;1999.90;999.90;;;;;;;14.78;100.00;92254.69;4920691;29;20182;-63
2022/08/29 03:25:01;;;;;;;1999.90;999.90;;;;;;;14.74;100.00;92256.97;4920011;29;20232;-62
2022/08/29 03:27:28;;;;;;;1999.90;999.90;;;;;;;14.75;100.00;92263.94;4920538;29;20232;-62
2022/08/29 03:29:53;;;;;;;1999.90;999.90;;;;;;;14.75;100.00;92265.97;4919926;29;20198;-62
2022/08/29 03:32:18;;;;;;;1999.90;999.90;;;;;;;14.74;100.00;92262.47;4920434;29;20197;-62
2022/08/29 03:34:44;;;;;;;1999.90;999.90;;;;;;;14.72;100.00;92273.19;4919821;29;20194;-63
2022/08/29 03:37:09;;;;;;;1999.90;999.90;;;;;;;14.72;100.00;92272.47;4919826;29;20205;-62
2022/08/29 03:39:36;;;;;;;1999.90;999.90;;;;;;;14.71;100.00;92277.22;4919748;29;20221;-62
2022/08/29 03:42:03;;;;;;;1999.90;999.90;;;;;;;14.71;100.00;92273.72;4935535;29;20244;-62
2022/08/29 03:44:31;;;;;;;1999.90;999.90;;;;;;;14.71;100.00;92268.97;4919688;29;20189;-62
2022/08/29 03:46:56;;;;;;;1999.90;999.90;;;;;;;14.70;100.00;92270.22;4919795;29;20289;-62
2022/08/29 03:49:22;;;;;;;1999.90;999.90;;;;;;;14.70;100.00;92259.25;4922230;29;20244;-63
2022/08/29 03:51:48;;;;;;;1999.90;999.90;;;;;;;14.69;100.00;92263.25;4922875;29;20178;-62
2022/08/29 03:54:14;;;;;;;1999.90;999.90;;;;;;;14.68;100.00;92267.22;4922717;29;20194;-62
2022/08/29 03:56:39;;;;;;;1999.90;999.90;;;;;;;14.67;100.00;92276.72;4923063;29;20197;-62
2022/08/29 03:59:05;;;;;;;1999.90;999.90;;;;;;;14.63;100.00;92281.75;4922739;29;20190;-62
2022/08/29 04:01:30;;;;;;;1999.90;999.90;;;;;;;14.62;100.00;92283.00;4923007;29;20201;-62
2022/08/29 04:03:56;;;;;;;1999.90;999.90;;;;;;;14.59;100.00;92292.25;4922975;29;20201;-62
2022/08/29 04:06:23;;;;;;;1999.90;999.90;;;;;;;14.57;100.00;92289.25;4922866;29;20205;-62
2022/08/29 04:08:50;;;;;;;1999.90;999.90;;;;;;;14.57;100.00;92297.47;4938098;29;20261;-62
2022/08/29 04:11:18;;;;;;;1999.90;999.90;;;;;;;14.54;100.00;92306.75;4922786;29;20186;-62
2022/08/29 04:13:44;;;;;;;1999.90;999.90;;;;;;;14.48;100.00;92314.25;4922647;29;20197;-63
2022/08/29 04:16:17;;;;;;;1999.90;999.90;;;;;;;14.50;100.00;92319.97;4922701;29;20253;-63
2022/08/29 04:18:42;;;;;;;1999.90;999.90;;;;;;;14.50;100.00;92319.97;4922832;29;20185;-63
2022/08/29 04:21:08;;;;;;;1999.90;999.90;;;;;;;14.49;100.00;92325.97;4922719;29;20197;-65
2022/08/29 04:23:35;;;;;;;1999.90;999.90;;;;;;;14.47;100.00;92337.47;4922485;29;20188;-62
2022/08/29 04:26:01;;;;;;;1999.90;999.90;;;;;;;14.46;100.00;92333.19;4922635;29;20300;-63
2022/08/29 04:28:26;;;;;;;1999.90;999.90;;;;;;;14.46;100.00;92348.94;4922963;29;20244;-63
2022/08/29 04:30:55;;;;;;;1999.90;999.90;;;;;;;14.46;100.00;92349.69;4922550;29;20263;-63
2022/08/29 04:33:23;;;;;;;1999.90;999.90;;;;;;;14.42;100.00;92343.69;4922583;29;20212;-62
2022/08/29 04:35:50;;;;;;;1999.90;999.90;;;;;;;14.42;100.00;92353.94;4922301;29;20196;-63
2022/08/29 04:38:15;;;;;;;1999.90;999.90;;;;;;;14.43;100.00;92358.94;4937933;29;20196;-63
2022/08/29 04:40:41;;;;;;;1999.90;999.90;;;;;;;14.48;100.00;92363.66;4938100;29;20280;-63
2022/08/29 04:43:08;;;;;;;1999.90;999.90;;;;;;;14.53;100.00;92367.66;4922119;29;20194;-63
2022/08/29 04:45:34;;;;;;;1999.90;999.90;;;;;;;14.60;100.00;92354.16;4937738;29;20277;-62
2022/08/29 04:48:02;;;;;;;1999.90;999.90;;;;;;;14.68;100.00;92346.88;4938361;29;20190;-62
2022/08/29 04:50:28;;;;;;;1999.90;999.90;;;;;;;14.83;100.00;92339.09;4922337;29;20199;-63
2022/08/29 04:52:54;;;;;;;1999.90;999.90;;;;;;;15.01;100.00;92322.03;4922199;29;20245;-62
2022/08/29 04:55:22;;;;;;;1999.90;999.90;;;;;;;15.18;100.00;92319.97;4922113;29;20186;-63
2022/08/29 04:57:49;;;;;;;1999.90;999.90;;;;;;;15.38;100.00;92311.41;4922027;29;20194;-62
2022/08/29 05:00:18;;;;;;;1999.90;999.90;;;;;;;15.67;100.00;92302.44;4921575;29;20197;-63
2022/08/29 05:02:44;;;;;;;1999.90;999.90;;;;;;;15.89;100.00;92294.03;4937906;29;20194;-62
2022/08/29 05:05:12;;;;;;;1999.90;999.90;;;;;;;16.10;100.00;92306.13;4922068;29;20194;-62
2022/08/29 05:07:38;;;;;;;1999.90;999.90;;;;;;;16.24;100.00;92329.78;4922110;29;20280;-63
2022/08/29 05:10:08;;;;;;;1999.90;999.90;;;;;;;16.44;100.00;92358.94;4922092;29;20194;-62
2022/08/29 05:12:34;;;;;;;1999.90;999.90;;;;;;;16.76;100.00;92386.69;4921614;29;20202;-63
2022/08/29 05:15:00;;;;;;;1999.90;999.90;;;;;;;17.00;100.00;92445.34;4938010;29;20188;-63
2022/08/29 05:17:26;;;;;;;1999.90;999.90;;;;;;;17.23;100.00;92545.91;4921867;29;20190;-63
2022/08/29 05:19:52;;;;;;;1999.90;999.90;;;;;;;17.45;100.00;92682.97;4922250;29;20248;-62
2022/08/29 05:22:19;;;;;;;1999.90;999.90;;;;;;;17.68;100.00;92836.13;4921446;29;20292;-62
2022/08/29 05:24:45;;;;;;;1999.90;999.90;;;;;;;18.03;100.00;92938.34;4921481;29;20200;-64
2022/08/29 05:27:17;;;;;;;1999.90;999.90;;;;;;;18.29;100.00;93074.09;4921908;29;20241;-63
2022/08/29 05:29:45;;;;;;;1999.90;999.90;;;;;;;18.59;100.00;93205.69;4922062;29;20244;-61
2022/08/29 05:32:13;;;;;;;1999.90;999.90;;;;;;;18.31;100.00;93361.75;4921867;29;20210;-62
2022/08/29 05:34:40;;;;;;;1999.90;999.90;;;;;;;18.48;100.00;93440.72;4937694;29;20231;-62
2022/08/29 05:37:09;;;;;;;1999.90;999.90;;;;;;;19.16;100.00;93478.94;4921432;29;20201;-61
2022/08/29 05:39:35;;;;;;;1999.90;999.90;;;;;;;19.58;100.00;93553.41;4921818;29;20204;-63
2022/08/29 05:42:01;;;;;;;1999.90;999.90;;;;;;;19.93;100.00;93639.50;4937247;29;20265;-64
2022/08/29 05:44:30;;;;;;;1999.90;999.90;;;;;;;20.50;100.00;93706.19;4921425;29;20220;-66
2022/08/29 05:46:55;;;;;;;1999.90;999.90;;;;;;;20.99;100.00;93771.19;4921345;29;20218;-63
2022/08/29 05:49:21;;;;;;;1999.90;999.90;;;;;;;21.30;100.00;93862.44;4921205;29;20221;-63
2022/08/29 05:51:47;;;;;;;1999.90;999.90;;;;;;;21.52;100.00;93946.50;4921347;29;20197;-64
2022/08/29 05:54:13;;;;;;;1999.90;999.90;;;;;;;21.56;100.00;93991.44;4921189;29;20197;-63
2022/08/29 05:56:38;;;;;;;1999.90;999.90;;;;;;;21.68;100.00;94031.84;4921571;29;20284;-64
2022/08/29 05:59:03;;;;;;;1999.90;999.90;;;;;;;22.00;100.00;94046.22;4921289;29;20222;-64
2022/08/29 06:01:32;;;;;;;1999.90;999.90;;;;;;;22.40;100.00;94060.25;4921030;29;20190;-64
2022/08/29 06:03:58;;;;;;;1999.90;999.90;;;;;;;22.62;100.00;94083.72;4921468;29;20190;-63
2022/08/29 06:06:26;;;;;;;1999.90;999.90;;;;;;;23.00;100.00;94096.69;4921018;29;20225;-65
2022/08/29 06:08:53;;;;;;;1999.90;999.90;;;;;;;23.26;100.00;94130.47;4921010;29;20244;-64
2022/08/29 06:11:22;;;;;;;1999.90;999.90;;;;;;;23.31;100.00;94171.50;4936016;29;20201;-63
2022/08/29 06:13:47;;;;;;;1999.90;999.90;;;;;;;23.26;100.00;94202.94;4921209;29;20201;-67
2022/08/29 06:16:18;;;;;;;1999.90;999.90;;;;;;;23.01;100.00;94215.19;4921350;29;20181;-65
2022/08/29 06:18:45;;;;;;;1999.90;999.90;;;;;;;23.38;100.00;94215.56;4936675;29;20190;-66
2022/08/29 06:21:11;;;;;;;1999.90;999.90;;;;;;;23.59;100.00;94230.63;4920815;29;20186;-67
2022/08/29 06:23:38;;;;;;;1999.90;999.90;;;;;;;23.87;100.00;94229.19;4920916;29;20190;-65
2022/08/29 06:26:04;;;;;;;1999.90;999.90;;;;;;;23.97;100.00;94265.94;4936652;29;20198;-64
2022/08/29 06:28:31;;;;;;;1999.90;999.90;;;;;;;24.03;100.00;94286.16;4920785;29;20194;-65
2022/08/29 06:31:08;;;;;;;1999.90;999.90;;;;;;;24.45;100.00;94277.22;4921116;29;20182;-65
2022/08/29 06:33:34;;;;;;;1999.90;999.90;;;;;;;25.09;100.00;94315.50;4920912;29;20194;-66
2022/08/29 06:36:00;;;;;;;1999.90;999.90;;;;;;;24.97;100.00;95183.28;4920349;29;20189;-65
2022/08/29 06:38:25;;;;;;;1999.90;999.90;;;;;;;25.08;100.00;95519.56;4921182;29;20249;-66
2022/08/29 06:40:50;;;;;;;1999.90;999.90;;;;;;;26.81;100.00;95394.72;4920684;29;20269;-66
2022/08/29 06:43:16;;;;;;;1999.90;999.90;;;;;;;27.46;100.00;95115.34;4920472;29;20200;-66
2022/08/29 06:45:44;;;;;;;1999.90;999.90;;;;;;;28.17;100.00;94498.81;4936352;29;20185;-66
2022/08/29 06:48:09;;;;;;;1999.90;999.90;;;;;;;28.74;100.00;93523.72;4920458;29;20240;-66
2022/08/29 06:50:40;;;;;;;1999.90;999.90;;;;;;;28.97;100.00;93425.94;4920419;29;20273;-66
2022/08/29 06:53:06;;;;;;;1999.90;999.90;;;;;;;29.32;100.00;93461.41;4920325;29;20186;-66
2022/08/29 06:55:36;;;;;;;1999.90;999.90;;;;;;;29.50;100.00;93705.00;4936133;29;20204;-66
2022/08/29 06:58:02;;;;;;;1999.90;999.90;;;;;;;29.31;100.00;93808.78;4920310;29;20306;-66
2022/08/29 07:00:27;;;;;;;1999.90;999.90;;;;;;;29.47;100.00;93889.06;4920352;29;20193;-65
2022/08/29 07:02:54;;;;;;;1999.90;999.90;;;;;;;29.25;100.00;93935.59;4920192;29;20182;-67
2022/08/29 07:05:21;;;;;;;1999.90;999.90;;;;;;;29.98;100.00;94151.56;4920121;29;20214;-66
2022/08/29 07:07:47;;;;;;;1999.90;999.90;;;;;;;30.20;100.00;94280.50;4936029;29;20257;-68
2022/08/29 07:10:13;;;;;;;1999.90;999.90;;;;;;;29.86;100.00;94542.66;4920544;29;20186;-67
2022/08/29 07:12:39;;;;;;;1999.90;999.90;;;;;;;29.59;100.00;94464.50;4935904;29;20281;-69
2022/08/29 07:15:05;;;;;;;1999.90;999.90;;;;;;;30.37;100.00;94562.63;4936343;29;20196;-68
2022/08/29 07:17:31;;;;;;;1999.90;999.90;;;;;;;30.98;100.00;94537.06;4935999;29;20202;-68
2022/08/29 07:19:56;;;;;;;1999.90;999.90;;;;;;;30.36;100.00;94580.84;4935955;29;20304;-68
2022/08/29 07:22:21;;;;;;;1999.90;999.90;;;;;;;31.50;100.00;94580.91;4919956;29;20189;-67
2022/08/29 07:24:47;;;;;;;1999.90;999.90;;;;;;;31.66;100.00;94641.03;4919782;29;20190;-69
2022/08/29 07:27:13;;;;;;;1999.90;999.90;;;;;;;31.84;100.00;94719.88;4935724;29;20230;-69
2022/08/29 07:29:38;;;;;;;1999.90;999.90;;;;;;;32.68;100.00;94846.84;4920240;29;20332;-69
2022/08/29 07:32:04;;;;;;;1999.90;999.90;;;;;;;32.93;95.67;95008.47;4919790;29;20281;-67
2022/08/29 07:34:30;;;;;;;1999.90;999.90;;;;;;;32.91;94.01;95091.13;4919529;29;20186;-69
2022/08/29 07:36:55;;;;;;;1999.90;999.90;;;;;;;32.46;97.82;95076.66;4919830;29;20315;-70
2022/08/29 07:39:21;;;;;;;1999.90;999.90;;;;;;;32.78;96.70;95125.16;4920222;29;20408;-70
2022/08/29 07:41:47;;;;;;;1999.90;999.90;;;;;;;32.93;88.85;95271.75;4935833;29;20193;-69
2022/08/29 07:44:14;;;;;;;1999.90;999.90;;;;;;;31.82;94.73;95292.56;4919789;29;20182;-68
2022/08/29 07:46:39;;;;;;;1999.90;999.90;;;;;;;31.22;100.00;95289.59;4919413;29;20206;-69
2022/08/29 07:49:05;;;;;;;1999.90;999.90;;;;;;;31.54;100.00;95327.00;4919485;29;20216;-68
2022/08/29 07:51:31;;;;;;;1999.90;999.90;;;;;;;32.36;98.06;95375.47;4935322;29;20190;-69
2022/08/29 07:53:57;;;;;;;1999.90;999.90;;;;;;;32.05;96.62;95447.06;4935477;29;20189;-69
2022/08/29 07:56:26;;;;;;;1999.90;999.90;;;;;;;32.90;95.28;95508.59;4919433;29;20189;-69
2022/08/29 07:58:52;;;;;;;1999.90;999.90;;;;;;;33.62;85.28;95550.19;4935514;29;20220;-69
2022/08/29 08:01:18;;;;;;;1999.90;999.90;;;;;;;31.78;90.96;95572.66;4919759;29;20201;-69
2022/08/29 08:03:45;;;;;;;1999.90;999.90;;;;;;;32.64;90.47;95582.19;4919575;29;20253;-68
2022/08/29 08:06:10;;;;;;;1999.90;999.90;;;;;;;32.92;94.07;95581.66;4919114;29;20233;-70
2022/08/29 08:08:36;;;;;;;1999.90;999.90;;;;;;;32.85;91.40;95605.72;4919401;29;20186;-69
2022/08/29 08:11:04;;;;;;;1999.90;999.90;;;;;;;33.78;85.62;95608.59;4919401;29;20194;-68
2022/08/29 08:13:30;;;;;;;1999.90;999.90;;;;;;;33.48;80.89;95618.84;4919937;29;20190;-72
2022/08/29 08:15:56;;;;;;;1999.90;999.90;;;;;;;32.88;84.78;95623.69;4919832;29;20186;-71
2022/08/29 08:18:22;;;;;;;1999.90;999.90;;;;;;;34.65;79.16;95628.88;4935113;29;20280;-72
2022/08/29 08:20:47;;;;;;;1999.90;999.90;;;;;;;33.97;83.33;95630.34;4935160;29;20278;-69
2022/08/29 08:23:14;;;;;;;1999.90;999.90;;;;;;;34.03;79.63;95637.41;4919095;29;20185;-70
2022/08/29 08:25:40;;;;;;;1999.90;999.90;;;;;;;34.35;79.41;95637.16;4934885;29;20185;-67
2022/08/29 08:28:06;;;;;;;1999.90;999.90;;;;;;;34.06;77.22;95636.31;4935490;29;20190;-68
2022/08/29 08:30:33;;;;;;;1999.90;999.90;;;;;;;34.08;80.06;95630.06;4934720;29;20190;-67
2022/08/29 08:32:59;;;;;;;1999.90;999.90;;;;;;;33.21;82.48;95629.41;4934701;29;20210;-67
2022/08/29 08:35:24;;;;;;;1999.90;999.90;;;;;;;33.41;82.00;95625.94;4920741;29;20190;-68
2022/08/29 08:37:50;;;;;;;1999.90;999.90;;;;;;;31.55;94.94;95642.09;4938328;29;20228;-66
2022/08/29 08:40:22;;;;;;;1999.90;999.90;;;;;;;32.64;91.72;95630.31;4938104;29;20178;-68
2022/08/29 08:42:48;;;;;;;1999.90;999.90;;;;;;;32.90;91.97;95638.06;4938054;29;20182;-70
2022/08/29 08:45:25;;;;;;;1999.90;999.90;;;;;;;33.78;83.42;95633.34;4922169;29;20181;-71
2022/08/29 08:48:03;;;;;;;1999.90;999.90;;;;;;;32.71;90.35;95632.50;4922431;29;20206;-71
2022/08/29 08:50:44;;;;;;;1999.90;999.90;;;;;;;32.20;88.67;95636.72;4938390;29;20194;-70
2022/08/29 08:53:36;;;;;;;1999.90;999.90;;;;;;;31.39;100.00;95631.78;4922230;29;20185;-70
2022/08/29 08:56:11;;;;;;;1999.90;999.90;;;;;;;31.05;100.00;95639.91;4938418;29;20198;-69
2022/08/29 08:58:53;;;;;;;1999.90;999.90;;;;;;;31.64;97.57;95626.81;4921965;29;20185;-70
2022/08/29 09:01:27;;;;;;;1999.90;999.90;;;;;;;34.09;81.67;95628.75;4938165;29;20225;-69
2022/08/29 09:04:30;;;;;;;1999.90;999.90;;;;;;;33.74;80.55;95627.25;4938516;29;20189;-68
2022/08/29 09:07:14;;;;;;;1999.90;999.90;;;;;;;34.07;81.69;95625.69;4937509;29;20215;-70
2022/08/29 09:09:40;;;;;;;1999.90;999.90;;;;;;;34.71;74.22;95635.16;4937577;29;20233;-68
2022/08/29 09:12:20;;;;;;;1999.90;999.90;;;;;;;33.68;77.29;95633.03;4937709;29;20218;-69
2022/08/29 09:14:56;;;;;;;1999.90;999.90;;;;;;;33.36;77.26;95635.31;4938225;29;20200;-69
2022/08/29 09:17:35;;;;;;;1999.90;999.90;;;;;;;32.74;80.26;95637.03;4922086;29;20185;-70
2022/08/29 09:20:07;;;;;;;1999.90;999.90;;;;;;;33.11;84.96;95625.50;4921811;29;20182;-67
2022/08/29 09:22:33;;;;;;;1999.90;999.90;;;;;;;32.93;81.89;95642.63;4921785;29;20204;-67
2022/08/29 09:25:02;;;;;;;1999.90;999.90;;;;;;;30.29;100.00;95645.09;4922155;29;20256;-68
2022/08/29 09:27:29;;;;;;;1999.90;999.90;;;;;;;29.19;100.00;95647.88;4921427;29;20202;-65
2022/08/29 09:30:13;;;;;;;1999.90;999.90;;;;;;;28.63;100.00;95593.88;4937522;29;20186;-68
2022/08/29 09:33:00;;;;;;;1999.90;999.90;;;;;;;28.74;100.00;95650.09;4937490;29;20185;-68
2022/08/29 09:35:35;;;;;;;1999.90;999.90;;;;;;;29.43;100.00;95645.19;4937895;29;20194;-69
2022/08/29 09:38:17;;;;;;;1999.90;999.90;;;;;;;29.51;100.00;95657.41;4921690;29;20239;-70
2022/08/29 09:41:09;;;;;;;1999.90;999.90;;;;;;;31.35;100.00;95636.22;4937283;29;20178;-69
2022/08/29 09:43:37;;;;;;;1999.90;999.90;;;;;;;32.41;94.89;95629.16;4934635;29;20202;-70
2022/08/29 09:46:11;;;;;;;1999.90;999.90;;;;;;;32.31;95.98;95622.44;4937493;29;20202;-68
2022/08/29 09:48:39;;;;;;;1999.90;999.90;;;;;;;31.36;100.00;95624.41;4937654;29;20205;-70
2022/08/29 09:51:27;;;;;;;1999.90;999.90;;;;;;;29.70;100.00;95616.88;4937002;29;20182;-68
2022/08/29 09:54:10;;;;;;;1999.90;999.90;;;;;;;28.95;100.00;95592.19;4937470;29;20202;-70
2022/08/29 09:56:38;;;;;;;1999.90;999.90;;;;;;;28.93;100.00;95563.03;4921081;29;20194;-68
2022/08/29 09:59:15;;;;;;;1999.90;999.90;;;;;;;30.37;100.00;95586.06;4937015;29;20281;-68
2022/08/29 10:01:40;;;;;;;1999.90;999.90;;;;;;;28.88;100.00;95597.59;4921090;29;20190;-67
2022/08/29 10:04:07;;;;;;;1999.90;999.90;;;;;;;29.72;100.00;95599.44;4921518;29;20241;-67
2022/08/29 10:06:38;;;;;;;1999.90;999.90;;;;;;;28.67;100.00;95602.03;4937142;29;20253;-68
2022/08/29 10:09:25;;;;;;;1999.90;999.90;;;;;;;29.45;100.00;95587.06;4921339;29;20186;-67
2022/08/29 10:12:02;;;;;;;1999.90;999.90;;;;;;;29.25;100.00;95589.50;4920990;29;20186;-69
2022/08/29 10:14:46;;;;;;;1999.90;999.90;;;;;;;28.43;100.00;95503.50;4921425;29;20185;-67
2022/08/29 10:20:08;;;;;;;1999.90;999.90;;;;;;;27.04;100.00;95399.06;4938263;29;20273;-68
2022/08/29 10:23:02;;;;;;;1999.90;999.90;;;;;;;26.54;100.00;95204.91;4921237;29;20186;-67
2022/08/29 10:25:37;;;;;;;1999.90;999.90;;;;;;;25.74;100.00;94271.28;4920739;29;20253;-68
2022/08/29 10:28:38;;;;;;;1999.90;999.90;;;;;;;26.14;100.00;94191.84;4920720;29;20357;-69
2022/08/29 10:31:19;;;;;;;1999.90;999.90;;;;;;;25.48;100.00;94304.69;4934267;29;20206;-69
2022/08/29 10:34:00;;;;;;;1999.90;999.90;;;;;;;26.76;100.00;94464.91;4936877;29;20193;-67
2022/08/29 10:36:34;;;;;;;1999.90;999.90;;;;;;;27.15;100.00;94720.31;4936652;29;20189;-68
2022/08/29 10:39:06;;;;;;;1999.90;999.90;;;;;;;27.09;100.00;94660.72;4920481;29;20211;-69
2022/08/29 10:41:43;;;;;;;1999.90;999.90;;;;;;;26.96;100.00;94733.53;4937037;29;20662;-70
2022/08/29 10:44:32;;;;;;;1999.90;999.90;;;;;;;26.57;100.00;94642.69;4936733;29;20193;-68
2022/08/29 10:47:15;;;;;;;1999.90;999.90;;;;;;;26.33;100.00;94654.63;4920396;29;20202;-71
2022/08/29 10:50:09;;;;;;;1999.90;999.90;;;;;;;26.58;100.00;94684.19;4936328;29;20240;-69
2022/08/29 10:52:58;;;;;;;1999.90;999.90;;;;;;;26.42;100.00;94656.34;4936084;29;20221;-70
2022/08/29 10:55:45;;;;;;;1999.90;999.90;;;;;;;26.31;100.00;94606.03;4920747;29;20297;-70
2022/08/29 10:58:40;;;;;;;1999.90;999.90;;;;;;;26.45;100.00;94642.06;4935573;29;20280;-68
2022/08/29 11:01:08;;;;;;;1999.90;999.90;;;;;;;27.44;100.00;94775.56;4920197;29;20193;-68
2022/08/29 11:03:49;;;;;;;1999.90;999.90;;;;;;;26.61;100.00;94711.19;4936090;29;20208;-69